sensor_id;sensor_type;location;lat;lon;timestamp;pressure;altitude;pressure_sealevel;temperature;humidity
46291;BME280;32023;44.444;26.006;2023-05-09T00:02:33;101168.13;;;9.05;87.17
46291;BME280;32023;44.444;26.006;2023-05-09T00:05:31;101170.50;;;9.02;86.49
46291;BME280;32023;44.444;26.006;2023-05-09T00:08:13;101169.78;;;9.06;86.76
46291;BME280;32023;44.444;26.006;2023-05-09T00:11:39;101169.09;;;9.11;86.48
46291;BME280;32023;44.444;26.006;2023-05-09T00:14:38;101172.47;;;9.13;86.29
46291;BME280;32023;44.444;26.006;2023-05-09T00:17:22;101153.72;;;9.10;85.52
46291;BME280;32023;44.444;26.006;2023-05-09T00:20:20;101162.84;;;9.04;85.92
46291;BME280;32023;44.444;26.006;2023-05-09T00:22:54;101160.25;;;9.09;85.90
46291;BME280;32023;44.444;26.006;2023-05-09T00:25:23;101165.59;;;9.04;85.76
46291;BME280;32023;44.444;26.006;2023-05-09T00:27:55;101159.06;;;9.05;85.78
46291;BME280;32023;44.444;26.006;2023-05-09T00:30:31;101158.41;;;9.03;85.39
46291;BME280;32023;44.444;26.006;2023-05-09T00:33:02;101159.88;;;9.05;85.16
46291;BME280;32023;44.444;26.006;2023-05-09T00:35:43;101155.53;;;8.98;84.56
46291;BME280;32023;44.444;26.006;2023-05-09T00:38:34;101154.47;;;8.99;85.26
46291;BME280;32023;44.444;26.006;2023-05-09T00:44:14;101161.16;;;9.03;84.63
46291;BME280;32023;44.444;26.006;2023-05-09T00:47:05;101165.84;;;9.02;84.31
46291;BME280;32023;44.444;26.006;2023-05-09T00:50:13;101157.19;;;8.99;84.40
46291;BME280;32023;44.444;26.006;2023-05-09T00:53:08;101171.78;;;8.99;84.45
46291;BME280;32023;44.444;26.006;2023-05-09T00:56:05;101170.94;;;8.99;84.57
46291;BME280;32023;44.444;26.006;2023-05-09T01:01:46;101174.78;;;8.98;84.82
46291;BME280;32023;44.444;26.006;2023-05-09T01:04:15;101171.41;;;8.96;84.52
46291;BME280;32023;44.444;26.006;2023-05-09T01:07:21;101166.06;;;9.01;84.71
46291;BME280;32023;44.444;26.006;2023-05-09T01:16:06;101170.19;;;8.92;83.74
46291;BME280;32023;44.444;26.006;2023-05-09T01:22:01;101172.16;;;9.03;83.76
46291;BME280;32023;44.444;26.006;2023-05-09T01:28:00;101162.09;;;8.97;83.56
46291;BME280;32023;44.444;26.006;2023-05-09T01:31:21;101166.38;;;8.93;84.16
46291;BME280;32023;44.444;26.006;2023-05-09T01:34:18;101175.69;;;8.92;84.48
46291;BME280;32023;44.444;26.006;2023-05-09T01:36:58;101170.19;;;8.92;84.06
46291;BME280;32023;44.444;26.006;2023-05-09T01:39:29;101176.91;;;8.96;84.10
46291;BME280;32023;44.444;26.006;2023-05-09T01:42:02;101174.53;;;8.99;83.86
46291;BME280;32023;44.444;26.006;2023-05-09T01:45:03;101173.47;;;9.00;83.67
46291;BME280;32023;44.444;26.006;2023-05-09T01:47:48;101170.94;;;8.99;83.67
46291;BME280;32023;44.444;26.006;2023-05-09T01:50:43;101167.75;;;9.02;83.33
46291;BME280;32023;44.444;26.006;2023-05-09T01:53:13;101159.50;;;9.02;83.79
46291;BME280;32023;44.444;26.006;2023-05-09T01:55:43;101128.09;;;8.80;83.04
46291;BME280;32023;44.444;26.006;2023-05-09T02:01:45;101161.63;;;9.00;82.38
46291;BME280;32023;44.444;26.006;2023-05-09T02:04:25;101164.63;;;8.98;81.85
46291;BME280;32023;44.444;26.006;2023-05-09T02:07:14;101159.94;;;8.99;81.76
46291;BME280;32023;44.444;26.006;2023-05-09T02:09:58;101165.00;;;9.02;81.47
46291;BME280;32023;44.444;26.006;2023-05-09T02:12:42;101161.31;;;9.08;81.34
46291;BME280;32023;44.444;26.006;2023-05-09T02:15:36;101174.59;;;9.11;80.81
46291;BME280;32023;44.444;26.006;2023-05-09T02:18:37;101167.28;;;9.05;80.78
46291;BME280;32023;44.444;26.006;2023-05-09T02:25:07;101157.19;;;8.99;79.94
46291;BME280;32023;44.444;26.006;2023-05-09T02:28:06;101167.38;;;8.98;80.36
46291;BME280;32023;44.444;26.006;2023-05-09T02:31:10;101155.25;;;9.06;80.39
46291;BME280;32023;44.444;26.006;2023-05-09T02:33:46;101163.78;;;8.98;79.60
46291;BME280;32023;44.444;26.006;2023-05-09T02:36:34;101165.31;;;8.94;80.15
46291;BME280;32023;44.444;26.006;2023-05-09T02:42:35;101170.94;;;8.99;80.49
46291;BME280;32023;44.444;26.006;2023-05-09T02:45:07;101168.81;;;9.01;80.62
46291;BME280;32023;44.444;26.006;2023-05-09T02:48:06;101171.72;;;9.06;80.79
46291;BME280;32023;44.444;26.006;2023-05-09T02:50:46;101170.72;;;9.00;80.52
46291;BME280;32023;44.444;26.006;2023-05-09T02:53:29;101168.66;;;8.96;80.47
46291;BME280;32023;44.444;26.006;2023-05-09T02:55:59;101174.31;;;9.01;80.36
46291;BME280;32023;44.444;26.006;2023-05-09T03:01:58;101173.38;;;9.07;80.39
46291;BME280;32023;44.444;26.006;2023-05-09T03:04:27;101177.28;;;8.99;79.84
46291;BME280;32023;44.444;26.006;2023-05-09T03:06:58;101175.25;;;8.95;79.68
46291;BME280;32023;44.444;26.006;2023-05-09T03:09:44;101182.38;;;8.96;80.00
46291;BME280;32023;44.444;26.006;2023-05-09T03:12:27;101183.84;;;8.98;80.40
46291;BME280;32023;44.444;26.006;2023-05-09T03:15:05;101181.50;;;9.02;80.36
46291;BME280;32023;44.444;26.006;2023-05-09T03:17:38;101181.13;;;8.98;80.00
46291;BME280;32023;44.444;26.006;2023-05-09T03:20:24;101195.22;;;9.02;79.50
46291;BME280;32023;44.444;26.006;2023-05-09T03:22:55;101205.00;;;8.98;79.30
46291;BME280;32023;44.444;26.006;2023-05-09T03:25:33;101197.13;;;9.01;79.56
46291;BME280;32023;44.444;26.006;2023-05-09T03:28:15;101203.91;;;8.99;78.65
46291;BME280;32023;44.444;26.006;2023-05-09T03:30:57;101209.19;;;9.00;78.66
46291;BME280;32023;44.444;26.006;2023-05-09T03:33:34;101204.91;;;9.04;78.58
46291;BME280;32023;44.444;26.006;2023-05-09T03:54:25;101221.00;;;9.19;77.56
46291;BME280;32023;44.444;26.006;2023-05-09T04:04:09;101225.59;;;9.25;76.92
46291;BME280;32023;44.444;26.006;2023-05-09T04:06:45;101222.59;;;9.27;75.99
46291;BME280;32023;44.444;26.006;2023-05-09T04:09:51;101231.84;;;9.32;76.35
46291;BME280;32023;44.444;26.006;2023-05-09T04:12:23;101240.84;;;9.39;76.46
46291;BME280;32023;44.444;26.006;2023-05-09T04:14:55;101238.38;;;9.49;75.85
46291;BME280;32023;44.444;26.006;2023-05-09T04:17:27;101245.47;;;9.57;76.12
46291;BME280;32023;44.444;26.006;2023-05-09T04:20:05;101250.88;;;9.63;75.37
46291;BME280;32023;44.444;26.006;2023-05-09T04:22:42;101254.00;;;9.67;75.02
46291;BME280;32023;44.444;26.006;2023-05-09T04:32:02;101247.16;;;9.88;74.03
46291;BME280;32023;44.444;26.006;2023-05-09T04:34:30;101244.56;;;9.93;73.58
46291;BME280;32023;44.444;26.006;2023-05-09T04:37:02;101240.88;;;9.99;73.25
46291;BME280;32023;44.444;26.006;2023-05-09T04:39:29;101239.69;;;10.06;72.59
46291;BME280;32023;44.444;26.006;2023-05-09T04:45:39;101252.00;;;10.04;71.28
46291;BME280;32023;44.444;26.006;2023-05-09T04:48:25;101247.81;;;10.01;71.40
46291;BME280;32023;44.444;26.006;2023-05-09T04:50:51;101254.66;;;10.10;71.38
46291;BME280;32023;44.444;26.006;2023-05-09T04:56:24;101267.31;;;10.30;70.85
46291;BME280;32023;44.444;26.006;2023-05-09T04:58:53;101250.81;;;10.41;70.73
46291;BME280;32023;44.444;26.006;2023-05-09T05:01:20;101239.31;;;10.44;70.54
46291;BME280;32023;44.444;26.006;2023-05-09T05:03:46;101252.03;;;10.45;69.59
46291;BME280;32023;44.444;26.006;2023-05-09T05:06:13;101250.47;;;10.49;69.27
46291;BME280;32023;44.444;26.006;2023-05-09T05:08:41;101258.75;;;10.61;68.72
46291;BME280;32023;44.444;26.006;2023-05-09T05:11:13;101265.94;;;10.74;68.58
46291;BME280;32023;44.444;26.006;2023-05-09T05:13:47;101267.75;;;10.80;67.77
46291;BME280;32023;44.444;26.006;2023-05-09T05:16:14;101259.84;;;10.83;67.01
46291;BME280;32023;44.444;26.006;2023-05-09T05:18:53;101253.59;;;10.88;67.06
46291;BME280;32023;44.444;26.006;2023-05-09T05:21:25;101271.44;;;10.85;66.70
46291;BME280;32023;44.444;26.006;2023-05-09T05:24:06;101265.34;;;10.95;67.74
46291;BME280;32023;44.444;26.006;2023-05-09T05:26:36;101261.38;;;11.02;66.24
46291;BME280;32023;44.444;26.006;2023-05-09T05:29:14;101261.25;;;11.09;66.65
46291;BME280;32023;44.444;26.006;2023-05-09T05:31:43;101263.28;;;11.14;66.00
46291;BME280;32023;44.444;26.006;2023-05-09T05:34:11;101273.13;;;11.21;65.33
46291;BME280;32023;44.444;26.006;2023-05-09T05:36:38;101266.97;;;11.19;65.84
46291;BME280;32023;44.444;26.006;2023-05-09T05:39:04;101273.34;;;11.20;64.98
46291;BME280;32023;44.444;26.006;2023-05-09T05:41:41;101268.66;;;11.20;64.76
46291;BME280;32023;44.444;26.006;2023-05-09T05:44:10;101264.44;;;11.29;65.37
46291;BME280;32023;44.444;26.006;2023-05-09T05:46:36;101258.19;;;11.34;64.96
46291;BME280;32023;44.444;26.006;2023-05-09T05:49:09;101264.31;;;11.47;64.31
46291;BME280;32023;44.444;26.006;2023-05-09T05:51:35;101256.81;;;11.59;63.55
46291;BME280;32023;44.444;26.006;2023-05-09T05:54:05;101261.72;;;11.69;63.69
46291;BME280;32023;44.444;26.006;2023-05-09T05:56:32;101274.31;;;11.77;63.26
46291;BME280;32023;44.444;26.006;2023-05-09T05:58:58;101279.84;;;11.77;62.92
46291;BME280;32023;44.444;26.006;2023-05-09T06:01:25;101271.31;;;11.78;63.00
46291;BME280;32023;44.444;26.006;2023-05-09T06:04:05;101275.00;;;11.84;62.73
46291;BME280;32023;44.444;26.006;2023-05-09T06:06:51;101264.91;;;11.89;63.01
46291;BME280;32023;44.444;26.006;2023-05-09T06:09:25;101270.34;;;12.01;62.61
46291;BME280;32023;44.444;26.006;2023-05-09T06:11:53;101262.78;;;12.08;62.99
46291;BME280;32023;44.444;26.006;2023-05-09T06:14:47;101256.84;;;12.16;62.33
46291;BME280;32023;44.444;26.006;2023-05-09T06:17:16;101254.34;;;12.31;61.87
46291;BME280;32023;44.444;26.006;2023-05-09T06:19:43;101260.66;;;12.43;61.37
46291;BME280;32023;44.444;26.006;2023-05-09T06:22:09;101260.50;;;12.50;60.98
46291;BME280;32023;44.444;26.006;2023-05-09T06:24:36;101256.91;;;12.49;60.80
46291;BME280;32023;44.444;26.006;2023-05-09T06:27:03;101254.19;;;12.54;61.30
46291;BME280;32023;44.444;26.006;2023-05-09T06:29:29;101245.16;;;12.59;61.33
46291;BME280;32023;44.444;26.006;2023-05-09T06:31:58;101247.69;;;12.61;60.04
46291;BME280;32023;44.444;26.006;2023-05-09T06:34:25;101253.47;;;12.59;60.38
46291;BME280;32023;44.444;26.006;2023-05-09T06:36:51;101247.69;;;12.61;59.02
46291;BME280;32023;44.444;26.006;2023-05-09T06:39:17;101247.19;;;12.64;59.30
46291;BME280;32023;44.444;26.006;2023-05-09T06:41:44;101242.81;;;12.68;59.62
46291;BME280;32023;44.444;26.006;2023-05-09T06:44:10;101221.94;;;12.77;59.50
46291;BME280;32023;44.444;26.006;2023-05-09T06:46:36;101253.53;;;12.81;59.20
46291;BME280;32023;44.444;26.006;2023-05-09T06:49:03;101245.31;;;12.86;59.07
46291;BME280;32023;44.444;26.006;2023-05-09T06:51:31;101242.63;;;12.91;58.82
46291;BME280;32023;44.444;26.006;2023-05-09T06:53:57;101238.94;;;13.02;58.26
46291;BME280;32023;44.444;26.006;2023-05-09T06:56:23;101222.41;;;13.07;58.20
46291;BME280;32023;44.444;26.006;2023-05-09T06:58:55;101247.16;;;13.14;58.09
46291;BME280;32023;44.444;26.006;2023-05-09T07:01:21;101247.59;;;13.27;57.70
46291;BME280;32023;44.444;26.006;2023-05-09T07:03:48;101246.97;;;13.42;57.85
46291;BME280;32023;44.444;26.006;2023-05-09T07:06:14;101235.31;;;13.62;57.26
46291;BME280;32023;44.444;26.006;2023-05-09T07:08:40;101234.28;;;13.68;56.71
46291;BME280;32023;44.444;26.006;2023-05-09T07:11:07;101237.75;;;13.80;57.02
46291;BME280;32023;44.444;26.006;2023-05-09T07:13:36;101231.84;;;13.98;56.38
46291;BME280;32023;44.444;26.006;2023-05-09T07:16:05;101228.19;;;14.19;56.05
46291;BME280;32023;44.444;26.006;2023-05-09T07:18:38;101244.19;;;14.39;55.14
46291;BME280;32023;44.444;26.006;2023-05-09T07:21:14;101238.56;;;14.34;54.47
46291;BME280;32023;44.444;26.006;2023-05-09T07:24:11;101248.59;;;14.35;54.04
46291;BME280;32023;44.444;26.006;2023-05-09T07:26:37;101250.91;;;14.21;54.02
46291;BME280;32023;44.444;26.006;2023-05-09T07:29:03;101241.88;;;14.31;53.97
46291;BME280;32023;44.444;26.006;2023-05-09T07:31:30;101249.91;;;14.32;54.42
46291;BME280;32023;44.444;26.006;2023-05-09T07:33:56;101241.78;;;14.48;53.60
46291;BME280;32023;44.444;26.006;2023-05-09T07:36:27;101244.31;;;14.54;53.14
46291;BME280;32023;44.444;26.006;2023-05-09T07:38:58;101244.25;;;14.81;53.29
46291;BME280;32023;44.444;26.006;2023-05-09T07:41:28;101236.66;;;15.08;52.53
46291;BME280;32023;44.444;26.006;2023-05-09T07:44:05;101241.25;;;15.34;52.09
46291;BME280;32023;44.444;26.006;2023-05-09T07:46:31;101226.81;;;15.32;50.84
46291;BME280;32023;44.444;26.006;2023-05-09T07:48:58;101231.94;;;15.51;50.91
46291;BME280;32023;44.444;26.006;2023-05-09T07:51:24;101239.22;;;15.67;50.66
46291;BME280;32023;44.444;26.006;2023-05-09T07:53:53;101240.91;;;15.78;50.11
46291;BME280;32023;44.444;26.006;2023-05-09T07:56:24;101236.19;;;15.78;50.12
46291;BME280;32023;44.444;26.006;2023-05-09T07:58:51;101239.22;;;15.72;49.56
46291;BME280;32023;44.444;26.006;2023-05-09T08:01:24;101233.94;;;15.75;49.64
46291;BME280;32023;44.444;26.006;2023-05-09T08:03:55;101241.72;;;15.73;49.13
46291;BME280;32023;44.444;26.006;2023-05-09T08:06:22;101229.81;;;15.78;49.29
46291;BME280;32023;44.444;26.006;2023-05-09T08:08:48;101245.56;;;15.67;49.18
46291;BME280;32023;44.444;26.006;2023-05-09T08:11:17;101240.88;;;15.63;49.65
46291;BME280;32023;44.444;26.006;2023-05-09T08:13:43;101242.84;;;15.72;49.32
46291;BME280;32023;44.444;26.006;2023-05-09T08:16:27;101233.44;;;15.78;49.53
46291;BME280;32023;44.444;26.006;2023-05-09T08:18:56;101237.00;;;15.79;49.22
46291;BME280;32023;44.444;26.006;2023-05-09T08:21:25;101242.03;;;15.82;49.27
46291;BME280;32023;44.444;26.006;2023-05-09T08:23:54;101231.78;;;15.93;48.58
46291;BME280;32023;44.444;26.006;2023-05-09T08:26:21;101241.22;;;15.92;48.71
46291;BME280;32023;44.444;26.006;2023-05-09T08:28:51;101232.06;;;15.96;48.83
46291;BME280;32023;44.444;26.006;2023-05-09T08:31:24;101238.19;;;16.03;48.32
46291;BME280;32023;44.444;26.006;2023-05-09T08:33:54;101228.22;;;16.17;47.92
46291;BME280;32023;44.444;26.006;2023-05-09T08:36:26;101247.16;;;16.30;47.82
46291;BME280;32023;44.444;26.006;2023-05-09T08:39:00;101235.72;;;16.12;47.45
46291;BME280;32023;44.444;26.006;2023-05-09T08:41:32;101222.94;;;16.16;47.97
46291;BME280;32023;44.444;26.006;2023-05-09T08:44:03;101253.25;;;16.12;47.94
46291;BME280;32023;44.444;26.006;2023-05-09T08:46:41;101234.91;;;16.31;47.54
46291;BME280;32023;44.444;26.006;2023-05-09T08:49:11;101241.03;;;16.38;47.16
46291;BME280;32023;44.444;26.006;2023-05-09T08:51:40;101230.44;;;16.35;46.81
46291;BME280;32023;44.444;26.006;2023-05-09T08:54:10;101231.03;;;16.48;47.14
46291;BME280;32023;44.444;26.006;2023-05-09T08:56:45;101231.03;;;16.63;47.21
46291;BME280;32023;44.444;26.006;2023-05-09T08:59:41;101238.00;;;16.70;46.60
46291;BME280;32023;44.444;26.006;2023-05-09T09:02:08;101229.38;;;16.87;46.14
46291;BME280;32023;44.444;26.006;2023-05-09T09:04:53;101234.41;;;16.60;46.01
46291;BME280;32023;44.444;26.006;2023-05-09T09:07:19;101242.16;;;16.43;46.33
46291;BME280;32023;44.444;26.006;2023-05-09T09:09:48;101241.56;;;16.25;46.81
46291;BME280;32023;44.444;26.006;2023-05-09T09:12:19;101248.75;;;15.96;47.49
46291;BME280;32023;44.444;26.006;2023-05-09T09:14:54;101241.94;;;15.52;48.83
46291;BME280;32023;44.444;26.006;2023-05-09T09:17:27;101247.94;;;15.38;49.82
46291;BME280;32023;44.444;26.006;2023-05-09T09:20:03;101245.97;;;15.29;49.78
46291;BME280;32023;44.444;26.006;2023-05-09T09:22:36;101250.63;;;15.23;50.17
46291;BME280;32023;44.444;26.006;2023-05-09T09:25:03;101240.91;;;15.21;50.10
46291;BME280;32023;44.444;26.006;2023-05-09T09:27:33;101244.53;;;15.26;51.18
46291;BME280;32023;44.444;26.006;2023-05-09T09:30:10;101248.66;;;15.19;51.47
46291;BME280;32023;44.444;26.006;2023-05-09T09:32:40;101242.25;;;15.18;51.82
46291;BME280;32023;44.444;26.006;2023-05-09T09:35:08;101239.28;;;15.25;51.69
46291;BME280;32023;44.444;26.006;2023-05-09T09:37:35;101241.50;;;15.28;51.57
46291;BME280;32023;44.444;26.006;2023-05-09T09:40:03;101245.03;;;15.13;51.68
46291;BME280;32023;44.444;26.006;2023-05-09T09:43:02;101244.34;;;14.91;51.96
46291;BME280;32023;44.444;26.006;2023-05-09T09:45:39;101232.53;;;14.69;52.83
46291;BME280;32023;44.444;26.006;2023-05-09T09:48:44;101254.59;;;14.59;52.87
46291;BME280;32023;44.444;26.006;2023-05-09T09:54:31;101261.47;;;14.51;53.83
46291;BME280;32023;44.444;26.006;2023-05-09T09:57:14;101239.97;;;14.63;53.83
46291;BME280;32023;44.444;26.006;2023-05-09T10:00:04;101245.88;;;14.77;52.49
46291;BME280;32023;44.444;26.006;2023-05-09T10:02:52;101252.41;;;14.98;51.73
46291;BME280;32023;44.444;26.006;2023-05-09T10:05:41;101237.81;;;15.12;51.84
46291;BME280;32023;44.444;26.006;2023-05-09T10:08:14;101242.63;;;15.32;52.05
46291;BME280;32023;44.444;26.006;2023-05-09T10:10:43;101243.50;;;15.42;51.69
46291;BME280;32023;44.444;26.006;2023-05-09T10:13:15;101231.81;;;15.35;51.76
46291;BME280;32023;44.444;26.006;2023-05-09T10:15:44;101237.06;;;14.80;53.31
46291;BME280;32023;44.444;26.006;2023-05-09T10:18:14;101256.09;;;14.39;54.97
46291;BME280;32023;44.444;26.006;2023-05-09T10:20:53;101252.53;;;14.17;55.84
46291;BME280;32023;44.444;26.006;2023-05-09T10:23:22;101256.19;;;13.96;56.59
46291;BME280;32023;44.444;26.006;2023-05-09T10:26:20;101258.03;;;13.85;57.40
46291;BME280;32023;44.444;26.006;2023-05-09T10:28:54;101255.38;;;13.95;57.79
46291;BME280;32023;44.444;26.006;2023-05-09T10:31:28;101252.13;;;14.04;58.16
46291;BME280;32023;44.444;26.006;2023-05-09T10:34:08;101249.72;;;14.12;57.28
46291;BME280;32023;44.444;26.006;2023-05-09T10:36:38;101253.69;;;14.48;56.98
46291;BME280;32023;44.444;26.006;2023-05-09T10:39:08;101240.97;;;14.84;55.67
46291;BME280;32023;44.444;26.006;2023-05-09T10:41:38;101244.53;;;15.21;54.23
46291;BME280;32023;44.444;26.006;2023-05-09T10:44:22;101249.47;;;15.14;54.18
46291;BME280;32023;44.444;26.006;2023-05-09T10:46:50;101252.66;;;14.96;53.90
46291;BME280;32023;44.444;26.006;2023-05-09T10:49:17;101247.25;;;14.74;54.71
46291;BME280;32023;44.444;26.006;2023-05-09T10:51:58;101238.88;;;14.64;55.28
46291;BME280;32023;44.444;26.006;2023-05-09T10:54:31;101247.44;;;14.63;55.77
46291;BME280;32023;44.444;26.006;2023-05-09T10:57:01;101237.00;;;14.75;55.54
46291;BME280;32023;44.444;26.006;2023-05-09T10:59:43;101237.72;;;14.97;55.38
46291;BME280;32023;44.444;26.006;2023-05-09T11:02:15;101246.94;;;15.55;54.49
46291;BME280;32023;44.444;26.006;2023-05-09T11:05:14;101239.94;;;16.75;50.10
46291;BME280;32023;44.444;26.006;2023-05-09T11:07:41;101245.34;;;18.88;46.45
46291;BME280;32023;44.444;26.006;2023-05-09T11:10:15;101239.72;;;20.06;41.23
46291;BME280;32023;44.444;26.006;2023-05-09T11:13:06;101238.63;;;19.65;41.22
46291;BME280;32023;44.444;26.006;2023-05-09T11:15:42;101247.31;;;18.82;43.24
46291;BME280;32023;44.444;26.006;2023-05-09T11:18:31;101237.47;;;18.61;44.10
46291;BME280;32023;44.444;26.006;2023-05-09T11:21:09;101243.22;;;18.74;43.84
46291;BME280;32023;44.444;26.006;2023-05-09T11:23:50;101240.84;;;18.92;43.56
46291;BME280;32023;44.444;26.006;2023-05-09T11:26:21;101236.56;;;18.99;43.07
46291;BME280;32023;44.444;26.006;2023-05-09T11:29:01;101233.81;;;18.65;43.83
46291;BME280;32023;44.444;26.006;2023-05-09T11:31:31;101243.03;;;18.22;43.81
46291;BME280;32023;44.444;26.006;2023-05-09T11:34:04;101238.50;;;17.92;44.54
46291;BME280;32023;44.444;26.006;2023-05-09T11:36:31;101246.00;;;17.97;45.00
46291;BME280;32023;44.444;26.006;2023-05-09T11:39:11;101242.16;;;17.83;46.20
46291;BME280;32023;44.444;26.006;2023-05-09T11:44:32;101232.50;;;17.65;45.23
46291;BME280;32023;44.444;26.006;2023-05-09T11:47:05;101239.50;;;17.47;45.88
46291;BME280;32023;44.444;26.006;2023-05-09T11:49:34;101249.63;;;17.08;45.79
46291;BME280;32023;44.444;26.006;2023-05-09T11:52:06;101243.28;;;16.67;47.06
46291;BME280;32023;44.444;26.006;2023-05-09T11:54:35;101245.72;;;16.28;48.64
46291;BME280;32023;44.444;26.006;2023-05-09T11:57:03;101240.16;;;16.28;48.91
46291;BME280;32023;44.444;26.006;2023-05-09T11:59:31;101239.63;;;16.51;48.93
46291;BME280;32023;44.444;26.006;2023-05-09T12:02:05;101239.34;;;17.03;47.87
46291;BME280;32023;44.444;26.006;2023-05-09T12:04:32;101230.09;;;17.33;46.32
46291;BME280;32023;44.444;26.006;2023-05-09T12:06:59;101224.44;;;17.53;45.68
46291;BME280;32023;44.444;26.006;2023-05-09T12:09:44;101213.31;;;17.63;45.30
46291;BME280;32023;44.444;26.006;2023-05-09T12:12:14;101226.66;;;17.61;44.91
46291;BME280;32023;44.444;26.006;2023-05-09T12:14:42;101223.13;;;17.36;45.76
46291;BME280;32023;44.444;26.006;2023-05-09T12:17:09;101215.84;;;17.45;46.22
46291;BME280;32023;44.444;26.006;2023-05-09T12:19:44;101216.38;;;17.52;45.87
46291;BME280;32023;44.444;26.006;2023-05-09T12:22:10;101220.69;;;17.88;45.00
46291;BME280;32023;44.444;26.006;2023-05-09T12:24:36;101212.72;;;18.10;43.04
46291;BME280;32023;44.444;26.006;2023-05-09T12:27:03;101208.09;;;18.35;42.41
46291;BME280;32023;44.444;26.006;2023-05-09T12:29:46;101205.78;;;18.47;41.94
46291;BME280;32023;44.444;26.006;2023-05-09T12:32:16;101205.72;;;18.57;41.95
46291;BME280;32023;44.444;26.006;2023-05-09T12:34:46;101180.06;;;18.55;41.80
46291;BME280;32023;44.444;26.006;2023-05-09T12:37:22;101179.19;;;18.20;42.22
46291;BME280;32023;44.444;26.006;2023-05-09T12:40:25;101186.41;;;17.88;42.95
46291;BME280;32023;44.444;26.006;2023-05-09T12:42:52;101179.72;;;17.84;43.76
46291;BME280;32023;44.444;26.006;2023-05-09T12:45:22;101180.72;;;18.03;43.07
46291;BME280;32023;44.444;26.006;2023-05-09T12:47:52;101183.91;;;17.86;42.80
46291;BME280;32023;44.444;26.006;2023-05-09T12:50:19;101165.28;;;17.82;42.98
46291;BME280;32023;44.444;26.006;2023-05-09T12:52:53;101181.47;;;17.74;42.82
46291;BME280;32023;44.444;26.006;2023-05-09T12:55:20;101175.44;;;17.57;43.39
46291;BME280;32023;44.444;26.006;2023-05-09T12:57:58;101173.78;;;17.51;44.00
46291;BME280;32023;44.444;26.006;2023-05-09T13:00:26;101171.53;;;17.63;43.75
46291;BME280;32023;44.444;26.006;2023-05-09T13:03:03;101167.81;;;17.73;44.09
46291;BME280;32023;44.444;26.006;2023-05-09T13:05:33;101164.84;;;17.54;44.97
46291;BME280;32023;44.444;26.006;2023-05-09T13:08:04;101156.75;;;17.63;44.43
46291;BME280;32023;44.444;26.006;2023-05-09T13:10:35;101155.00;;;17.72;43.84
46291;BME280;32023;44.444;26.006;2023-05-09T13:13:07;101161.16;;;17.69;44.11
46291;BME280;32023;44.444;26.006;2023-05-09T13:15:45;101151.13;;;17.73;44.99
46291;BME280;32023;44.444;26.006;2023-05-09T13:18:12;101141.16;;;17.57;44.46
46291;BME280;32023;44.444;26.006;2023-05-09T13:21:09;101110.22;;;17.09;44.30
46291;BME280;32023;44.444;26.006;2023-05-09T13:23:59;101133.81;;;17.22;44.07
46291;BME280;32023;44.444;26.006;2023-05-09T13:26:26;101135.31;;;16.99;44.02
46291;BME280;32023;44.444;26.006;2023-05-09T13:28:59;101136.41;;;16.93;44.78
46291;BME280;32023;44.444;26.006;2023-05-09T13:31:36;101124.13;;;17.09;44.41
46291;BME280;32023;44.444;26.006;2023-05-09T13:37:11;101129.06;;;17.22;44.59
46291;BME280;32023;44.444;26.006;2023-05-09T13:39:37;101124.59;;;17.26;43.85
46291;BME280;32023;44.444;26.006;2023-05-09T13:42:06;101130.69;;;17.33;43.58
46291;BME280;32023;44.444;26.006;2023-05-09T13:44:33;101141.34;;;17.21;42.44
46291;BME280;32023;44.444;26.006;2023-05-09T13:49:56;101129.53;;;16.70;45.26
46291;BME280;32023;44.444;26.006;2023-05-09T13:52:30;101129.81;;;16.54;44.48
46291;BME280;32023;44.444;26.006;2023-05-09T13:55:02;101129.00;;;16.38;43.88
46291;BME280;32023;44.444;26.006;2023-05-09T13:57:39;101131.22;;;16.36;44.13
46291;BME280;32023;44.444;26.006;2023-05-09T14:00:16;101129.84;;;16.28;44.06
46291;BME280;32023;44.444;26.006;2023-05-09T14:02:43;101129.84;;;16.28;44.06
46291;BME280;32023;44.444;26.006;2023-05-09T14:05:14;101134.28;;;16.34;44.63
46291;BME280;32023;44.444;26.006;2023-05-09T14:07:44;101130.94;;;16.53;46.17
46291;BME280;32023;44.444;26.006;2023-05-09T14:10:11;101135.09;;;16.55;46.44
46291;BME280;32023;44.444;26.006;2023-05-09T14:12:41;101137.59;;;16.47;46.58
46291;BME280;32023;44.444;26.006;2023-05-09T14:15:12;101145.13;;;16.21;46.53
46291;BME280;32023;44.444;26.006;2023-05-09T14:17:43;101130.69;;;16.14;46.39
46291;BME280;32023;44.444;26.006;2023-05-09T14:20:12;101143.47;;;16.10;46.64
46291;BME280;32023;44.444;26.006;2023-05-09T14:22:43;101145.97;;;16.06;47.31
46291;BME280;32023;44.444;26.006;2023-05-09T14:25:22;101137.91;;;16.10;47.47
46291;BME280;32023;44.444;26.006;2023-05-09T14:27:51;101133.75;;;16.27;47.89
46291;BME280;32023;44.444;26.006;2023-05-09T14:30:17;101130.66;;;16.29;47.81
46291;BME280;32023;44.444;26.006;2023-05-09T14:32:44;101129.28;;;16.21;45.91
46291;BME280;32023;44.444;26.006;2023-05-09T14:35:14;101143.75;;;15.93;47.11
46291;BME280;32023;44.444;26.006;2023-05-09T14:37:40;101142.03;;;15.72;48.92
46291;BME280;32023;44.444;26.006;2023-05-09T14:40:10;101139.75;;;15.54;49.94
46291;BME280;32023;44.444;26.006;2023-05-09T14:42:37;101134.22;;;15.54;50.73
46291;BME280;32023;44.444;26.006;2023-05-09T14:45:08;101133.94;;;15.50;50.43
46291;BME280;32023;44.444;26.006;2023-05-09T14:47:42;101124.41;;;15.31;50.55